createdAt,value
2022-10-19T07:32:46.959Z,19.47
2022-10-19T07:37:40.787Z,12.00
2022-10-19T08:09:01.154Z,11.20
2022-10-19T08:13:55.412Z,14.47
2022-10-19T08:18:51.067Z,15.43
2022-10-19T08:23:44.721Z,12.63
2022-10-19T08:28:38.341Z,13.90
2022-10-19T08:33:32.136Z,17.67
2022-10-19T08:38:27.170Z,20.40
2022-10-19T08:43:29.098Z,17.23
2022-10-19T08:48:30.186Z,16.20
2022-10-19T08:53:33.772Z,17.80
2022-10-19T08:58:51.594Z,16.77
2022-10-19T09:03:55.460Z,14.80
2022-10-19T09:08:53.490Z,14.45
2022-10-19T09:14:05.882Z,13.75
2022-10-19T09:18:59.962Z,16.15
2022-10-19T09:23:59.482Z,15.15
2022-10-19T09:28:58.591Z,13.68
2022-10-19T09:33:56.843Z,14.00
2022-10-19T09:38:51.051Z,15.98
2022-10-19T09:43:53.722Z,15.68
2022-10-19T09:48:51.258Z,12.85
2022-10-19T09:53:46.967Z,12.73
2022-10-19T09:58:50.958Z,15.55
2022-10-19T10:03:44.510Z,12.07
2022-10-19T10:08:41.210Z,14.00
2022-10-19T10:13:39.270Z,12.57
2022-10-19T10:18:38.841Z,13.55
2022-10-19T10:23:36.586Z,15.45
2022-10-19T10:28:31.655Z,15.45
2022-10-19T10:33:43.705Z,13.32
2022-10-19T10:38:45.155Z,13.60
2022-10-19T10:48:55.155Z,12.15
2022-10-19T10:53:50.758Z,14.23
2022-10-19T10:58:48.830Z,11.80
2022-10-19T11:03:49.142Z,13.25
2022-10-19T11:08:49.993Z,10.40
2022-10-19T11:13:51.881Z,13.38
2022-10-19T11:18:48.818Z,12.73
2022-10-19T11:23:57.670Z,10.60
2022-10-19T11:29:03.937Z,11.18
2022-10-19T11:34:04.813Z,11.52
2022-10-19T11:39:13.205Z,10.38
2022-10-19T11:44:31.477Z,10.32
2022-10-19T11:49:41.621Z,10.93
2022-10-19T11:54:48.425Z,10.73
2022-10-19T12:00:13.550Z,9.48
2022-10-19T12:05:19.486Z,12.98
2022-10-19T12:10:26.977Z,12.90
2022-10-19T12:15:28.693Z,11.68
2022-10-19T12:20:29.855Z,14.27
2022-10-19T12:25:24.401Z,15.45
2022-10-19T12:30:21.288Z,13.32
2022-10-19T12:35:30.673Z,9.25
2022-10-19T12:40:34.382Z,13.80
2022-10-19T12:45:34.011Z,11.45
2022-10-19T12:55:47.458Z,8.43
2022-10-19T13:00:41.015Z,10.43
2022-10-19T13:05:36.332Z,7.72
2022-10-19T13:10:31.659Z,8.52
2022-10-19T13:15:59.686Z,9.05
2022-10-19T13:20:54.838Z,8.50
2022-10-19T13:25:48.341Z,12.25
2022-10-19T13:31:26.278Z,7.93
2022-10-19T13:36:21.941Z,9.85
2022-10-19T13:41:21.905Z,8.18
2022-10-19T13:46:21.044Z,8.55
2022-10-19T13:51:22.664Z,9.30
2022-10-19T13:56:27.348Z,7.63
2022-10-19T14:01:33.833Z,8.43
2022-10-19T14:06:31.951Z,8.52
2022-10-19T14:11:28.918Z,7.97
2022-10-19T14:16:24.542Z,8.75
2022-10-19T14:21:31.417Z,8.77
2022-10-19T14:26:28.175Z,8.73
2022-10-19T14:31:26.164Z,9.02
2022-10-19T14:36:23.112Z,11.07
2022-10-19T14:41:22.482Z,9.07
2022-10-19T14:46:17.513Z,9.38
2022-10-19T14:51:28.245Z,9.35
2022-10-19T14:56:26.514Z,8.30
2022-10-19T15:01:21.311Z,11.45
2022-10-19T15:06:20.823Z,10.45
2022-10-19T15:11:28.605Z,8.88
2022-10-19T15:16:35.741Z,9.00
2022-10-19T15:21:33.394Z,7.57
2022-10-19T15:26:30.714Z,11.45
2022-10-19T15:31:27.814Z,7.25
2022-10-19T15:36:22.630Z,10.80
2022-10-19T15:41:29.531Z,9.27
2022-10-19T15:46:32.889Z,8.10
2022-10-19T15:51:45.190Z,9.55
2022-10-19T15:56:41.451Z,14.38
2022-10-19T16:01:35.528Z,17.25
2022-10-19T16:06:31.111Z,15.30
2022-10-19T16:11:25.283Z,12.55
2022-10-19T16:16:23.814Z,14.38
2022-10-19T16:21:18.223Z,12.40
2022-10-19T16:26:13.690Z,12.90
2022-10-19T16:31:07.402Z,13.15
2022-10-19T16:36:06.118Z,11.80
2022-10-19T16:41:02.756Z,16.55
2022-10-19T16:45:56.275Z,12.00
2022-10-19T16:51:20.357Z,10.48
2022-10-19T16:56:15.018Z,15.52
2022-10-19T17:01:09.033Z,19.15
2022-10-19T17:06:03.955Z,15.50
2022-10-19T17:10:59.901Z,21.85
2022-10-19T17:15:53.479Z,29.13
2022-10-19T17:20:47.037Z,24.25
2022-10-19T17:25:48.293Z,21.42
2022-10-19T17:30:44.173Z,23.70
2022-10-19T17:35:37.682Z,21.90
2022-10-19T17:40:31.202Z,14.20
2022-10-19T17:45:25.176Z,15.52
2022-10-19T17:50:20.594Z,23.50
2022-10-19T17:55:14.605Z,21.25
2022-10-19T18:00:09.337Z,19.45
2022-10-19T18:05:06.713Z,14.00
2022-10-19T18:10:01.789Z,14.38
2022-10-19T18:14:55.397Z,17.10
2022-10-19T18:19:48.996Z,21.05
2022-10-19T18:24:42.591Z,17.48
2022-10-19T18:29:37.620Z,17.05
